createdAt,value
2016-12-05T00:00:19.385Z,920.87
2016-12-05T00:00:47.281Z,920.84
2016-12-05T00:01:15.065Z,920.88
2016-12-05T00:01:42.980Z,920.81
2016-12-05T00:02:11.301Z,920.8
2016-12-05T00:02:39.063Z,920.84
2016-12-05T00:03:06.888Z,920.85
2016-12-05T00:03:34.651Z,920.89
2016-12-05T00:04:02.762Z,920.9
2016-12-05T00:04:30.914Z,920.9
2016-12-05T00:04:59.100Z,920.91
2016-12-05T00:05:26.920Z,920.91
2016-12-05T00:05:54.728Z,920.9
2016-12-05T00:06:22.449Z,920.92
2016-12-05T00:06:50.278Z,920.93
2016-12-05T00:07:18.630Z,920.94
2016-12-05T00:07:46.423Z,920.88
2016-12-05T00:08:14.507Z,920.96
2016-12-05T00:08:42.704Z,920.97
2016-12-05T00:09:10.467Z,920.98
2016-12-05T00:09:38.785Z,920.99
2016-12-05T00:10:06.985Z,920.97
2016-12-05T00:10:35.442Z,920.95
2016-12-05T00:11:03.273Z,920.96
2016-12-05T00:11:31.051Z,920.96
2016-12-05T00:11:58.964Z,920.95
2016-12-05T00:12:26.777Z,920.93
2016-12-05T00:12:54.635Z,920.94
2016-12-05T00:13:22.701Z,920.89
2016-12-05T00:13:50.587Z,920.85
2016-12-05T00:14:19.042Z,920.87
2016-12-05T00:14:47.203Z,920.85
2016-12-05T00:15:15.072Z,920.86
2016-12-05T00:15:42.892Z,920.84
2016-12-05T00:16:11.005Z,920.79
2016-12-05T00:16:39.626Z,920.79
2016-12-05T00:17:07.950Z,920.87
2016-12-05T00:17:35.704Z,920.8
2016-12-05T00:18:03.716Z,920.84
2016-12-05T00:18:32.129Z,920.83
2016-12-05T00:18:59.943Z,920.84
2016-12-05T00:19:28.089Z,920.9
2016-12-05T00:19:55.949Z,920.9
2016-12-05T00:20:23.770Z,920.95
2016-12-05T00:20:51.536Z,920.92
2016-12-05T00:21:19.576Z,920.97
2016-12-05T00:21:47.447Z,920.98
2016-12-05T00:22:15.360Z,920.96
2016-12-05T00:22:43.113Z,920.94
2016-12-05T00:23:11.185Z,920.87
2016-12-05T00:23:38.964Z,920.83
2016-12-05T00:24:06.840Z,920.84
2016-12-05T00:24:34.695Z,920.81
2016-12-05T00:25:02.883Z,920.77
2016-12-05T00:25:31.311Z,920.77
2016-12-05T00:25:59.484Z,920.75
2016-12-05T00:26:27.330Z,920.7
2016-12-05T00:26:55.136Z,920.69
2016-12-05T00:27:23.130Z,920.66
2016-12-05T00:27:50.920Z,920.64
2016-12-05T00:28:19.076Z,920.63
2016-12-05T00:28:46.863Z,920.61
2016-12-05T00:29:14.735Z,920.59
2016-12-05T00:29:42.618Z,920.61
2016-12-05T00:30:10.730Z,920.62
2016-12-05T00:30:39.200Z,920.61
2016-12-05T00:31:06.943Z,920.61
2016-12-05T00:31:34.778Z,920.66
2016-12-05T00:32:02.573Z,920.67
2016-12-05T00:32:30.368Z,920.67
2016-12-05T00:32:58.153Z,920.69
2016-12-05T00:33:26.207Z,920.76
2016-12-05T00:33:54.304Z,920.69
2016-12-05T00:34:22.128Z,920.72
2016-12-05T00:34:49.834Z,920.74
2016-12-05T00:35:17.745Z,920.74
2016-12-05T00:35:45.525Z,920.74
2016-12-05T00:36:13.302Z,920.76
2016-12-05T00:36:41.154Z,920.77
2016-12-05T00:37:09.266Z,920.77
2016-12-05T00:37:37.080Z,920.77
2016-12-05T00:38:04.857Z,920.79
2016-12-05T00:38:33.064Z,920.81
2016-12-05T00:39:01.207Z,920.84
2016-12-05T00:39:29.338Z,920.85
2016-12-05T00:39:57.146Z,920.92
2016-12-05T00:40:24.956Z,920.97
2016-12-05T00:40:52.742Z,920.98
2016-12-05T00:41:20.549Z,920.99
2016-12-05T00:41:48.346Z,921
2016-12-05T00:42:16.565Z,921
2016-12-05T00:42:44.450Z,921.01
2016-12-05T00:43:12.310Z,921
2016-12-05T00:43:40.432Z,921.02
2016-12-05T00:44:08.196Z,920.99
2016-12-05T00:44:35.989Z,921.01
2016-12-05T00:45:04.139Z,921.03
2016-12-05T00:45:32.521Z,921.01
2016-12-05T00:46:00.649Z,921.02
2016-12-05T00:46:28.737Z,921.06
2016-12-05T00:46:56.566Z,921.07
2016-12-05T00:47:24.579Z,921.08
2016-12-05T00:47:52.722Z,921.08
2016-12-05T00:48:20.488Z,921.08
2016-12-05T00:48:48.643Z,921.12
2016-12-05T00:49:16.456Z,921.08
2016-12-05T00:49:44.190Z,921.08
2016-12-05T00:50:12.022Z,921.05
2016-12-05T00:50:40.146Z,921.07
2016-12-05T00:51:08.235Z,921.05
2016-12-05T00:51:35.995Z,921.07
2016-12-05T00:52:03.859Z,921.08
2016-12-05T00:52:32.017Z,921.07
2016-12-05T00:52:59.850Z,921.09
2016-12-05T00:53:27.649Z,921.15
2016-12-05T00:53:55.388Z,921.14
2016-12-05T00:54:23.571Z,921.07
2016-12-05T00:54:51.682Z,921.1
2016-12-05T00:55:19.531Z,921.1
2016-12-05T00:55:47.808Z,921.05
2016-12-05T00:56:15.991Z,921.07
2016-12-05T00:56:58.964Z,921.08
2016-12-05T00:57:27.211Z,921.09
2016-12-05T00:57:55.076Z,921.12
2016-12-05T00:58:22.874Z,921.16
2016-12-05T00:58:50.995Z,921.13
2016-12-05T00:59:19.504Z,921.13
2016-12-05T00:59:47.271Z,921.16
2016-12-05T01:00:15.091Z,921.16
2016-12-05T01:00:42.974Z,921.21
2016-12-05T01:01:10.788Z,921.19
2016-12-05T01:01:38.934Z,921.18
2016-12-05T01:02:06.751Z,921.18
2016-12-05T01:02:34.802Z,921.2
2016-12-05T01:03:02.962Z,921.17
2016-12-05T01:03:30.861Z,921.18
2016-12-05T01:03:58.712Z,921.18
2016-12-05T01:04:26.568Z,921.16
2016-12-05T01:04:54.735Z,921.19
2016-12-05T01:05:22.864Z,921.16
2016-12-05T01:05:50.665Z,921.13
2016-12-05T01:06:18.804Z,921.13
2016-12-05T01:06:46.587Z,921.13
2016-12-05T01:07:14.423Z,921.1
2016-12-05T01:07:42.851Z,921.1
2016-12-05T01:08:11.062Z,921.08
2016-12-05T01:08:38.926Z,921.03
2016-12-05T01:09:06.768Z,921.01
2016-12-05T01:09:34.945Z,920.98
2016-12-05T01:10:02.984Z,920.97
2016-12-05T01:10:31.046Z,920.94
2016-12-05T01:10:58.912Z,920.94
2016-12-05T01:11:26.740Z,920.92
2016-12-05T01:11:54.588Z,920.95
2016-12-05T01:12:22.327Z,920.97
2016-12-05T01:12:50.637Z,920.93
2016-12-05T01:13:18.711Z,920.96
2016-12-05T01:13:46.848Z,920.89
2016-12-05T01:14:14.653Z,920.88
2016-12-05T01:14:43.712Z,920.89
2016-12-05T01:15:11.644Z,920.88
2016-12-05T01:15:39.429Z,920.88
2016-12-05T01:16:07.572Z,920.85
2016-12-05T01:16:35.616Z,920.86
2016-12-05T01:17:03.748Z,920.88
2016-12-05T01:17:31.566Z,920.9
2016-12-05T01:17:59.652Z,920.87
2016-12-05T01:18:27.806Z,920.86
2016-12-05T01:18:56.188Z,920.9
2016-12-05T01:19:24.160Z,920.91
2016-12-05T01:19:52.356Z,920.87
2016-12-05T01:20:20.211Z,920.89
2016-12-05T01:20:48.383Z,920.94
2016-12-05T01:21:16.160Z,920.94
2016-12-05T01:21:44.283Z,920.95
2016-12-05T01:22:12.416Z,920.96
2016-12-05T01:22:40.440Z,921.03
2016-12-05T01:23:08.526Z,921.04
2016-12-05T01:23:36.610Z,921.05
2016-12-05T01:24:04.388Z,921.05
2016-12-05T01:24:32.162Z,921.03
2016-12-05T01:25:00.285Z,921.1
2016-12-05T01:25:28.150Z,921.06
2016-12-05T01:25:55.943Z,921.07
2016-12-05T01:26:23.737Z,921.06
2016-12-05T01:26:51.553Z,921.09
2016-12-05T01:27:19.327Z,921.05
2016-12-05T01:27:47.179Z,921.02
2016-12-05T01:28:15.293Z,920.99
2016-12-05T01:28:43.142Z,921.01
2016-12-05T01:29:10.901Z,921.03
2016-12-05T01:29:39.062Z,921.03
2016-12-05T01:30:06.882Z,921.06
2016-12-05T01:30:34.703Z,921.04
2016-12-05T01:31:02.426Z,921.02
2016-12-05T01:31:30.211Z,921.03
2016-12-05T01:31:58.152Z,920.98
2016-12-05T01:32:25.941Z,920.95
2016-12-05T01:32:53.833Z,920.98
2016-12-05T01:33:21.705Z,920.98
2016-12-05T01:33:49.587Z,920.98
2016-12-05T01:34:17.351Z,920.98
2016-12-05T01:34:45.469Z,921.02
2016-12-05T01:35:14.588Z,921.03
2016-12-05T01:35:42.344Z,921.04
2016-12-05T01:36:10.153Z,921.04
2016-12-05T01:36:38.609Z,921.05
2016-12-05T01:37:06.511Z,921.04
2016-12-05T01:37:34.559Z,921.08
2016-12-05T01:38:02.365Z,921.04
2016-12-05T01:38:30.189Z,921.1
2016-12-05T01:38:58.264Z,921.09
2016-12-05T01:39:26.108Z,921.11
2016-12-05T01:39:53.874Z,921.13
2016-12-05T01:40:21.998Z,921.13
2016-12-05T01:40:49.794Z,921.15
2016-12-05T01:41:17.921Z,921.14
2016-12-05T01:41:45.742Z,921.15
2016-12-05T01:42:13.521Z,921.15
2016-12-05T01:42:41.571Z,921.17
2016-12-05T01:43:09.636Z,921.15
2016-12-05T01:43:37.766Z,921.18
2016-12-05T01:44:05.917Z,921.2
2016-12-05T01:44:33.710Z,921.23
2016-12-05T01:45:01.815Z,921.26
2016-12-05T01:45:29.568Z,921.22
2016-12-05T01:45:57.416Z,921.2
2016-12-05T01:46:25.184Z,921.2
2016-12-05T01:46:53.247Z,921.23
2016-12-05T01:47:21.315Z,921.24
2016-12-05T01:47:49.829Z,921.25
2016-12-05T01:48:18.228Z,921.25
2016-12-05T01:48:46.050Z,921.23
2016-12-05T01:49:13.791Z,921.25
2016-12-05T01:49:41.640Z,921.23
2016-12-05T01:50:09.487Z,921.27
2016-12-05T01:50:37.368Z,921.25
2016-12-05T01:51:05.229Z,921.23
2016-12-05T01:51:33.049Z,921.23
2016-12-05T01:52:00.832Z,921.23
2016-12-05T01:52:28.647Z,921.23
2016-12-05T01:52:56.469Z,921.21
2016-12-05T01:53:24.567Z,921.18
2016-12-05T01:53:52.698Z,921.15
2016-12-05T01:54:20.498Z,921.17
2016-12-05T01:54:48.672Z,921.14
2016-12-05T01:55:16.606Z,921.17
2016-12-05T01:55:44.375Z,921.16
2016-12-05T01:56:12.498Z,921.18
2016-12-05T01:56:40.367Z,921.17
2016-12-05T01:57:08.172Z,921.16
2016-12-05T01:57:35.985Z,921.16
2016-12-05T01:58:04.400Z,921.21
2016-12-05T01:58:32.438Z,921.21
2016-12-05T01:59:00.284Z,921.19
2016-12-05T01:59:28.805Z,921.22
2016-12-05T01:59:56.569Z,921.21
2016-12-05T02:00:24.374Z,921.18
2016-12-05T02:00:52.233Z,921.21
2016-12-05T02:01:20.061Z,921.18
2016-12-05T02:01:47.893Z,921.19
2016-12-05T02:02:16.084Z,921.19
2016-12-05T02:02:43.929Z,921.12
2016-12-05T02:03:11.928Z,921.08
2016-12-05T02:03:39.771Z,921.09
2016-12-05T02:04:07.933Z,921.05
2016-12-05T02:04:35.778Z,921.04
2016-12-05T02:05:03.659Z,921.04
2016-12-05T02:05:31.520Z,921.05
2016-12-05T02:05:59.282Z,921.03
2016-12-05T02:06:27.073Z,921.06
2016-12-05T02:06:54.804Z,921.05
2016-12-05T02:07:23.477Z,921.09
2016-12-05T02:07:51.337Z,921.1
2016-12-05T02:08:19.188Z,921.13
2016-12-05T02:08:47.066Z,921.13
2016-12-05T02:09:14.950Z,921.15
2016-12-05T02:09:42.784Z,921.19
2016-12-05T02:10:10.564Z,921.21
2016-12-05T02:10:38.384Z,921.18
2016-12-05T02:11:06.192Z,921.18
2016-12-05T02:11:33.981Z,921.21
2016-12-05T02:12:01.827Z,921.18
2016-12-05T02:12:29.928Z,921.19
2016-12-05T02:12:57.833Z,921.19
2016-12-05T02:13:26.225Z,921.17
2016-12-05T02:13:54.338Z,921.15
2016-12-05T02:14:22.156Z,921.19
2016-12-05T02:14:49.968Z,921.16
2016-12-05T02:15:18.053Z,921.17
2016-12-05T02:15:46.159Z,921.16
2016-12-05T02:16:14.292Z,921.13
2016-12-05T02:16:42.120Z,921.12
2016-12-05T02:17:10.211Z,921.16
2016-12-05T02:17:37.945Z,921.18
2016-12-05T02:18:06.059Z,921.16
2016-12-05T02:18:34.169Z,921.16
2016-12-05T02:19:01.933Z,921.14
2016-12-05T02:19:30.022Z,921.13
2016-12-05T02:19:57.941Z,921.16
2016-12-05T02:20:25.749Z,921.2
2016-12-05T02:20:53.463Z,921.19
2016-12-05T02:21:21.243Z,921.16
2016-12-05T02:21:49.416Z,921.14
2016-12-05T02:22:17.542Z,921.15
2016-12-05T02:22:45.297Z,921.17
2016-12-05T02:23:13.169Z,921.13
2016-12-05T02:23:41.255Z,921.13
2016-12-05T02:24:09.073Z,921.13
2016-12-05T02:24:36.887Z,921.1
2016-12-05T02:25:05.140Z,921.1
2016-12-05T02:25:33.273Z,921.11
2016-12-05T02:26:01.123Z,921.13
2016-12-05T02:26:28.927Z,921.05
2016-12-05T02:26:57.550Z,921.06
2016-12-05T02:27:25.338Z,921.07
2016-12-05T02:27:53.606Z,921.09
2016-12-05T02:28:21.563Z,921.14
2016-12-05T02:28:49.316Z,921.14
2016-12-05T02:29:17.146Z,921.13
2016-12-05T02:29:45.032Z,921.17
2016-12-05T02:30:13.106Z,921.2
2016-12-05T02:30:41.219Z,921.19
2016-12-05T02:31:09.053Z,921.18
2016-12-05T02:31:36.895Z,921.18
2016-12-05T02:32:04.985Z,921.21
2016-12-05T02:32:32.728Z,921.17
2016-12-05T02:33:01.094Z,921.18
2016-12-05T02:33:28.858Z,921.22
2016-12-05T02:33:57.369Z,921.23
2016-12-05T02:34:25.210Z,921.2
2016-12-05T02:34:52.996Z,921.22
2016-12-05T02:35:21.097Z,921.22
2016-12-05T02:35:49.257Z,921.21
2016-12-05T02:36:17.097Z,921.18
2016-12-05T02:36:44.886Z,921.25
2016-12-05T02:37:12.955Z,921.25
2016-12-05T02:37:40.756Z,921.25
2016-12-05T02:38:08.761Z,921.27
2016-12-05T02:38:36.553Z,921.24
2016-12-05T02:39:04.522Z,921.3
2016-12-05T02:39:33.099Z,921.27
2016-12-05T02:40:00.805Z,921.31
2016-12-05T02:40:28.615Z,921.32
2016-12-05T02:40:56.724Z,921.31
2016-12-05T02:41:24.497Z,921.34
2016-12-05T02:41:52.306Z,921.31
2016-12-05T02:42:20.452Z,921.32
2016-12-05T02:42:48.560Z,921.33
2016-12-05T02:43:16.909Z,921.29
2016-12-05T02:43:45.033Z,921.32
2016-12-05T02:44:12.883Z,921.32
2016-12-05T02:44:41.309Z,921.28
2016-12-05T02:45:09.042Z,921.3
2016-12-05T02:45:37.159Z,921.28
2016-12-05T02:46:04.981Z,921.27
2016-12-05T02:46:32.842Z,921.3
2016-12-05T02:47:01.226Z,921.27
2016-12-05T02:47:29.330Z,921.25
2016-12-05T02:47:57.130Z,921.29
2016-12-05T02:48:24.950Z,921.29
2016-12-05T02:48:52.806Z,921.31
2016-12-05T02:49:20.584Z,921.29
2016-12-05T02:49:48.350Z,921.28
2016-12-05T02:50:16.236Z,921.26
2016-12-05T02:50:44.346Z,921.27
2016-12-05T02:51:12.428Z,921.31
2016-12-05T02:51:40.233Z,921.28
2016-12-05T02:52:08.099Z,921.28
2016-12-05T02:52:35.871Z,921.28
2016-12-05T02:53:03.949Z,921.29
2016-12-05T02:53:31.820Z,921.27
2016-12-05T02:54:00.239Z,921.28
2016-12-05T02:54:28.025Z,921.29
2016-12-05T02:54:56.180Z,921.28
2016-12-05T02:55:24.626Z,921.32
2016-12-05T02:55:52.428Z,921.21
2016-12-05T02:56:20.230Z,921.27
2016-12-05T02:56:48.095Z,921.23
2016-12-05T02:57:15.935Z,921.22
2016-12-05T02:57:44.065Z,921.19
2016-12-05T02:58:11.823Z,921.19
2016-12-05T02:58:39.707Z,921.18
2016-12-05T02:59:07.813Z,921.14
2016-12-05T02:59:35.929Z,921.17
2016-12-05T03:00:04.064Z,921.16
2016-12-05T03:00:32.173Z,921.12
2016-12-05T03:00:59.990Z,921.1
2016-12-05T03:01:27.863Z,921.11
2016-12-05T03:01:55.804Z,921.09
2016-12-05T03:02:23.624Z,921.07
2016-12-05T03:02:51.364Z,921.05
2016-12-05T03:03:19.346Z,921.07
2016-12-05T03:03:47.882Z,921.08
2016-12-05T03:04:15.766Z,921.07
2016-12-05T03:04:43.496Z,921.11
2016-12-05T03:05:11.409Z,921.09
2016-12-05T03:05:39.176Z,921.06
2016-12-05T03:06:07.020Z,921.06
2016-12-05T03:06:35.498Z,921.09
2016-12-05T03:07:03.671Z,921.04
2016-12-05T03:07:31.482Z,921.01
2016-12-05T03:07:59.532Z,921.01
2016-12-05T03:08:27.971Z,921.03
2016-12-05T03:08:56.169Z,921.02
2016-12-05T03:09:24.035Z,921.04
2016-12-05T03:09:51.878Z,921
2016-12-05T03:10:19.645Z,921.03
2016-12-05T03:10:47.440Z,921.04
2016-12-05T03:11:15.936Z,921.05
2016-12-05T03:11:44.253Z,921.04
2016-12-05T03:12:12.173Z,921.06
2016-12-05T03:12:39.922Z,921.08
2016-12-05T03:13:08.950Z,921.06
2016-12-05T03:13:37.300Z,921.05
2016-12-05T03:14:05.727Z,921.01
2016-12-05T03:14:33.617Z,921.04
2016-12-05T03:15:01.439Z,921.03
2016-12-05T03:15:29.240Z,921.01
2016-12-05T03:15:57.000Z,921.04
2016-12-05T03:16:25.155Z,921.01
2016-12-05T03:16:53.578Z,921.05
2016-12-05T03:17:21.731Z,921.01
2016-12-05T03:17:49.912Z,921.03
2016-12-05T03:18:18.007Z,921.03
2016-12-05T03:18:45.886Z,921.04
2016-12-05T03:19:14.289Z,921.05
2016-12-05T03:19:42.703Z,921.07
2016-12-05T03:20:10.519Z,921.07
2016-12-05T03:20:38.337Z,921.06
2016-12-05T03:21:06.393Z,921.06
2016-12-05T03:21:34.205Z,921.09
2016-12-05T03:22:01.984Z,921.09
2016-12-05T03:22:30.170Z,921.05
2016-12-05T03:22:58.048Z,921.07
2016-12-05T03:23:25.906Z,921.06
2016-12-05T03:23:53.898Z,921.09
2016-12-05T03:24:21.783Z,921.08
2016-12-05T03:24:50.001Z,921.11
2016-12-05T03:25:18.531Z,921.07
2016-12-05T03:25:46.406Z,921.08
2016-12-05T03:26:14.665Z,921.05
2016-12-05T03:26:42.588Z,921.02
2016-12-05T03:27:10.675Z,920.96
2016-12-05T03:27:38.460Z,920.97
2016-12-05T03:28:06.624Z,920.93
2016-12-05T03:28:34.460Z,920.94
2016-12-05T03:29:02.603Z,920.94
2016-12-05T03:29:30.357Z,920.94
2016-12-05T03:29:58.487Z,920.97
2016-12-05T03:30:26.318Z,920.98
2016-12-05T03:30:54.120Z,920.94
2016-12-05T03:31:21.905Z,920.97
2016-12-05T03:31:49.739Z,920.98
2016-12-05T03:32:17.453Z,920.97
2016-12-05T03:32:45.579Z,920.93
2016-12-05T03:33:13.766Z,920.93
2016-12-05T03:33:41.982Z,920.88
2016-12-05T03:34:10.097Z,920.91
2016-12-05T03:34:37.880Z,920.85
2016-12-05T03:35:06.007Z,920.85
2016-12-05T03:35:34.107Z,920.86
2016-12-05T03:36:01.944Z,920.81
2016-12-05T03:36:29.765Z,920.82
2016-12-05T03:36:57.544Z,920.8
2016-12-05T03:37:25.571Z,920.87
2016-12-05T03:37:53.340Z,920.85
2016-12-05T03:38:21.497Z,920.87
2016-12-05T03:38:49.300Z,920.85
2016-12-05T03:39:17.491Z,920.82
2016-12-05T03:39:45.581Z,920.83
2016-12-05T03:40:13.737Z,920.76
2016-12-05T03:40:41.936Z,920.75
2016-12-05T03:41:09.997Z,920.74
2016-12-05T03:41:37.827Z,920.74
2016-12-05T03:42:06.225Z,920.74
2016-12-05T03:42:34.010Z,920.71
2016-12-05T03:43:01.818Z,920.73
2016-12-05T03:43:30.204Z,920.71
2016-12-05T03:43:58.243Z,920.69
2016-12-05T03:44:26.083Z,920.72
2016-12-05T03:44:54.180Z,920.68
2016-12-05T03:45:22.064Z,920.66
2016-12-05T03:45:49.926Z,920.63
2016-12-05T03:46:18.168Z,920.66
2016-12-05T03:46:46.331Z,920.6
2016-12-05T03:47:14.790Z,920.61
2016-12-05T03:47:42.752Z,920.64
2016-12-05T03:48:10.529Z,920.61
2016-12-05T03:48:38.329Z,920.61
2016-12-05T03:49:06.609Z,920.59
2016-12-05T03:49:34.383Z,920.61
2016-12-05T03:50:02.152Z,920.68
2016-12-05T03:50:30.803Z,920.64
2016-12-05T03:50:59.092Z,920.63
2016-12-05T03:51:26.904Z,920.68
2016-12-05T03:51:55.000Z,920.64
2016-12-05T03:52:23.179Z,920.68
2016-12-05T03:52:51.128Z,920.66
2016-12-05T03:53:18.951Z,920.68
2016-12-05T03:53:46.756Z,920.65
2016-12-05T03:54:14.535Z,920.69
2016-12-05T03:54:42.354Z,920.66
2016-12-05T03:55:10.191Z,920.65
2016-12-05T03:55:38.170Z,920.7
2016-12-05T03:56:48.826Z,920.67
2016-12-05T03:57:16.602Z,920.69
2016-12-05T03:57:44.408Z,920.71
2016-12-05T03:58:12.513Z,920.75
2016-12-05T03:58:40.643Z,920.74
2016-12-05T03:59:08.806Z,920.79
2016-12-05T03:59:36.618Z,920.78
2016-12-05T04:00:04.415Z,920.78
2016-12-05T04:00:32.226Z,920.81
2016-12-05T04:01:00.330Z,920.8
2016-12-05T04:01:28.126Z,920.77
2016-12-05T04:01:56.131Z,920.78
2016-12-05T04:02:23.940Z,920.73
2016-12-05T04:02:51.791Z,920.71
2016-12-05T04:03:20.243Z,920.74
2016-12-05T04:03:48.067Z,920.73
2016-12-05T04:04:16.087Z,920.71
2016-12-05T04:04:43.864Z,920.71
2016-12-05T04:05:12.046Z,920.68
2016-12-05T04:05:40.142Z,920.65
2016-12-05T04:06:08.332Z,920.63
2016-12-05T04:06:36.431Z,920.64
2016-12-05T04:07:04.201Z,920.64
2016-12-05T04:07:32.021Z,920.64
2016-12-05T04:08:00.433Z,920.58
2016-12-05T04:08:28.518Z,920.62
2016-12-05T04:08:56.697Z,920.58
2016-12-05T04:09:24.783Z,920.56
2016-12-05T04:09:53.215Z,920.6
2016-12-05T04:10:21.011Z,920.59
2016-12-05T04:10:49.212Z,920.57
2016-12-05T04:11:17.213Z,920.59
2016-12-05T04:11:45.048Z,920.62
2016-12-05T04:12:12.934Z,920.61
2016-12-05T04:12:40.743Z,920.63
2016-12-05T04:13:09.138Z,920.61
2016-12-05T04:13:37.322Z,920.59
2016-12-05T04:14:05.436Z,920.59
2016-12-05T04:14:33.833Z,920.59
2016-12-05T04:15:01.624Z,920.56
2016-12-05T04:15:29.487Z,920.59
2016-12-05T04:15:57.287Z,920.6
2016-12-05T04:16:25.388Z,920.57
2016-12-05T04:16:53.230Z,920.57
2016-12-05T04:17:21.015Z,920.58
2016-12-05T04:17:49.114Z,920.57
2016-12-05T04:18:16.951Z,920.58
2016-12-05T04:18:44.749Z,920.55
2016-12-05T04:19:13.407Z,920.57
2016-12-05T04:19:41.549Z,920.58
2016-12-05T04:20:09.486Z,920.65
2016-12-05T04:20:37.660Z,920.59
2016-12-05T04:21:05.870Z,920.62
2016-12-05T04:21:34.110Z,920.61
2016-12-05T04:22:02.539Z,920.6
2016-12-05T04:22:30.363Z,920.59
2016-12-05T04:22:58.230Z,920.56
2016-12-05T04:23:26.108Z,920.58
2016-12-05T04:23:53.937Z,920.57
2016-12-05T04:24:21.993Z,920.59
2016-12-05T04:24:50.034Z,920.55
2016-12-05T04:25:18.225Z,920.57
2016-12-05T04:25:46.363Z,920.57
2016-12-05T04:26:14.538Z,920.57
2016-12-05T04:26:42.356Z,920.58
2016-12-05T04:27:10.770Z,920.59
2016-12-05T04:27:38.529Z,920.58
2016-12-05T04:28:07.012Z,920.59
2016-12-05T04:28:34.824Z,920.63
2016-12-05T04:29:02.671Z,920.6
2016-12-05T04:29:30.826Z,920.61
2016-12-05T04:29:58.621Z,920.63
2016-12-05T04:30:26.380Z,920.63
2016-12-05T04:30:54.488Z,920.58
2016-12-05T04:31:22.709Z,920.64
2016-12-05T04:31:50.866Z,920.61
2016-12-05T04:32:18.782Z,920.6
2016-12-05T04:32:46.883Z,920.6
2016-12-05T04:33:15.277Z,920.62
2016-12-05T04:33:43.069Z,920.57
2016-12-05T04:34:11.261Z,920.55
2016-12-05T04:34:39.071Z,920.58
2016-12-05T04:35:06.884Z,920.52
2016-12-05T04:35:34.668Z,920.53
2016-12-05T04:36:03.084Z,920.5
2016-12-05T04:36:30.927Z,920.47
2016-12-05T04:36:58.706Z,920.47
2016-12-05T04:37:26.457Z,920.41
2016-12-05T04:37:54.341Z,920.44
2016-12-05T04:38:22.558Z,920.45
2016-12-05T04:38:50.667Z,920.43
2016-12-05T04:39:18.684Z,920.41
2016-12-05T04:39:46.517Z,920.42
2016-12-05T04:40:14.908Z,920.44
2016-12-05T04:40:42.714Z,920.43
2016-12-05T04:41:10.466Z,920.47
2016-12-05T04:41:38.234Z,920.42
2016-12-05T04:42:06.394Z,920.47
2016-12-05T04:42:34.519Z,920.5
2016-12-05T04:43:02.302Z,920.45
2016-12-05T04:43:30.405Z,920.47
2016-12-05T04:43:58.242Z,920.46
2016-12-05T04:44:26.167Z,920.44
2016-12-05T04:44:53.984Z,920.47
2016-12-05T04:45:22.377Z,920.43
2016-12-05T04:45:50.162Z,920.4
2016-12-05T04:46:18.599Z,920.4
2016-12-05T04:46:46.396Z,920.38
2016-12-05T04:47:14.221Z,920.37
2016-12-05T04:47:41.988Z,920.41
2016-12-05T04:48:10.125Z,920.39
2016-12-05T04:48:37.911Z,920.36
2016-12-05T04:49:06.355Z,920.34
2016-12-05T04:49:34.179Z,920.32
2016-12-05T04:50:02.033Z,920.35
2016-12-05T04:50:29.881Z,920.33
2016-12-05T04:50:57.761Z,920.31
2016-12-05T04:51:25.588Z,920.31
2016-12-05T04:51:53.970Z,920.31
2016-12-05T04:52:21.822Z,920.29
2016-12-05T04:52:49.738Z,920.37
2016-12-05T04:53:17.882Z,920.36
2016-12-05T04:53:45.679Z,920.36
2016-12-05T04:54:13.438Z,920.35
2016-12-05T04:54:41.524Z,920.33
2016-12-05T04:55:09.621Z,920.31
2016-12-05T04:55:37.452Z,920.31
2016-12-05T04:56:05.212Z,920.35
2016-12-05T04:56:33.487Z,920.31
2016-12-05T04:57:01.740Z,920.32
2016-12-05T04:57:29.958Z,920.35
2016-12-05T04:57:57.701Z,920.29
2016-12-05T04:58:25.863Z,920.35
2016-12-05T04:58:53.970Z,920.27
2016-12-05T04:59:21.802Z,920.33
2016-12-05T04:59:50.085Z,920.3
2016-12-05T05:00:18.862Z,920.3
2016-12-05T05:00:46.700Z,920.29
2016-12-05T05:01:14.547Z,920.3
2016-12-05T05:01:42.650Z,920.29
2016-12-05T05:02:10.793Z,920.29
2016-12-05T05:02:38.885Z,920.3
2016-12-05T05:03:07.009Z,920.33
2016-12-05T05:03:34.854Z,920.35
2016-12-05T05:04:03.307Z,920.35
2016-12-05T05:04:31.611Z,920.34
2016-12-05T05:04:59.321Z,920.35
2016-12-05T05:05:27.156Z,920.37
2016-12-05T05:05:54.977Z,920.38
2016-12-05T05:06:22.855Z,920.35
2016-12-05T05:06:50.738Z,920.31
2016-12-05T05:07:18.615Z,920.29
2016-12-05T05:07:46.755Z,920.23
2016-12-05T05:08:15.203Z,920.23
2016-12-05T05:08:43.684Z,920.15
2016-12-05T05:09:11.527Z,920.12
2016-12-05T05:09:39.391Z,920.15
2016-12-05T05:10:07.166Z,920.13
2016-12-05T05:10:35.083Z,920.15
2016-12-05T05:11:02.904Z,920.14
2016-12-05T05:11:31.368Z,920.14
2016-12-05T05:11:59.226Z,920.18
2016-12-05T05:12:27.322Z,920.22
2016-12-05T05:12:55.108Z,920.23
2016-12-05T05:13:22.926Z,920.23
2016-12-05T05:13:50.752Z,920.28
2016-12-05T05:14:18.807Z,920.27
2016-12-05T05:14:47.177Z,920.25
2016-12-05T05:15:14.938Z,920.28
2016-12-05T05:15:43.631Z,920.25
2016-12-05T05:16:11.506Z,920.27
2016-12-05T05:16:39.910Z,920.28
2016-12-05T05:17:07.807Z,920.28
2016-12-05T05:17:35.933Z,920.28
2016-12-05T05:18:04.028Z,920.27
2016-12-05T05:18:31.826Z,920.25
2016-12-05T05:18:59.672Z,920.29
2016-12-05T05:19:27.862Z,920.31
2016-12-05T05:19:56.492Z,920.31
2016-12-05T05:20:24.252Z,920.29
2016-12-05T05:20:52.104Z,920.32
2016-12-05T05:21:19.922Z,920.3
2016-12-05T05:21:48.289Z,920.3
2016-12-05T05:22:16.482Z,920.32
2016-12-05T05:22:44.335Z,920.32
2016-12-05T05:23:12.451Z,920.29
2016-12-05T05:23:40.254Z,920.34
2016-12-05T05:24:08.074Z,920.27
2016-12-05T05:24:35.902Z,920.28
2016-12-05T05:25:03.841Z,920.28
2016-12-05T05:25:32.094Z,920.34
2016-12-05T05:26:00.315Z,920.31
2016-12-05T05:26:28.837Z,920.3
2016-12-05T05:26:56.536Z,920.31
2016-12-05T05:27:24.367Z,920.31
2016-12-05T05:27:52.548Z,920.35
2016-12-05T05:28:20.885Z,920.28
2016-12-05T05:29:45.993Z,920.3
2016-12-05T05:30:13.851Z,920.32
2016-12-05T05:30:41.755Z,920.3
2016-12-05T05:31:09.717Z,920.26
2016-12-05T05:31:37.668Z,920.27
2016-12-05T05:32:05.992Z,920.28
2016-12-05T05:32:48.774Z,920.29
2016-12-05T05:33:31.360Z,920.25
2016-12-05T05:33:59.187Z,920.25
2016-12-05T05:34:27.085Z,920.27
2016-12-05T05:34:55.596Z,920.28
2016-12-05T05:36:35.161Z,920.24
2016-12-05T05:37:03.066Z,920.26
2016-12-05T05:37:31.249Z,920.24
2016-12-05T05:37:59.112Z,920.25
2016-12-05T05:38:27.095Z,920.19
2016-12-05T05:38:55.008Z,920.22
2016-12-05T05:39:23.778Z,920.18
2016-12-05T05:39:51.760Z,920.16
2016-12-05T05:40:19.636Z,920.14
2016-12-05T05:40:47.580Z,920.16
2016-12-05T05:41:15.705Z,920.17
2016-12-05T05:41:43.941Z,920.16
2016-12-05T05:42:26.758Z,920.13
2016-12-05T05:42:54.847Z,920.2
2016-12-05T05:43:22.972Z,920.16
2016-12-05T05:43:50.702Z,920.12
2016-12-05T05:44:18.826Z,920.15
2016-12-05T05:44:46.718Z,920.17
2016-12-05T05:45:14.619Z,920.14
2016-12-05T05:45:42.635Z,920.15
2016-12-05T05:46:10.410Z,920.14
2016-12-05T05:46:38.267Z,920.18
2016-12-05T05:47:06.473Z,920.18
2016-12-05T05:47:34.228Z,920.14
2016-12-05T05:48:02.359Z,920.16
2016-12-05T05:48:30.261Z,920.14
2016-12-05T05:48:58.724Z,920.16
2016-12-05T05:49:26.879Z,920.15
2016-12-05T05:49:54.963Z,920.12
2016-12-05T05:50:22.759Z,920.11
2016-12-05T05:50:50.901Z,920.12
2016-12-05T05:51:19.052Z,920.1
2016-12-05T05:51:46.882Z,920.08
2016-12-05T05:52:14.643Z,920.09
2016-12-05T05:52:42.474Z,920.05
2016-12-05T05:53:10.237Z,920.05
2016-12-05T05:53:38.045Z,920.06
2016-12-05T05:54:06.232Z,920.06